Lone Star Executive Airport
KCXO : rendu visible

Aérodrome :











RETROUVEZ-NOUS SUR...

 
LOGIN :

S'inscrire | Disclaimer

   EN    FR    IT 

 









Légende :    VFR   VFR Marginal   IFR   IFR Intensif   IFR Très Intensif
Visi : 
Plafond : 
>= 8 km
>= 3000ft
5 à 8 km
1000 à 3000 ft
1500m à 5 km
500 à 1000 ft
800 à 1500m
200 à 500 ft
< 800m
< 200 ft
Symboles :   Orages  Brouillard  Fortes neiges  Fortes précipitations  Vent > 20 kt






- Altitude de l'aérodrome : 245 ft


KCXO - Lone Star Executive

DERNIER METAR :
  • 220653Z AUTO 07008KT 10SM OVC006 22/21 A2994 RMK AO2 RAB17E53 SLP137 P0002 T02220211

METARs EXPIRÉS :
  • 220553Z AUTO 08007G14KT 10SM OVC009 22/21 A2995 RMK AO2 CIG 007V013 SLP139 60004 T02220211 10222 20217 402440206 58006
  • 220453Z AUTO 06008G15KT 10SM OVC007 22/21 A2996 RMK AO2 CIG 006V011 SLP142 T02220211

TAF KCXO
Valide du 22 à 06h jusqu'au 23 à 06h UTC


220520Z 2206/2306 06009KT P6SM VCSH OVC007
TEMPO 2207/2211 4SM SHRA BR OVC004
FM221100 05009KT 4SM SHRA BR OVC004
FM221600 06010KT 5SM SHRA BR BKN005 OVC010
FM230200 02009KT 5SM -SHRA BR OVC007
FIR KZHU / Amérique du Nord



MET'MAP, la Météo Aéronautique d'un coup d'oeil ! - Copyright ORBIFLY Décembre 2007 - Disclaimer

ORBIFLY MET'MAP TEAM :

Programmation & Développement : Alexandra Zaïnal
Sur une idée originale de : Baudouin d'Aumeries
Assistance à la programmation : Marc-Olivier Méhu
Soutien technique & logistique : Manuel Goepfert

Contact : metmap@orbifly.com




SOURCES & CREDITS :

   NOAA       Earth
Advisory